Time;durP1;ratioP1;P1;durP2;ratioP2;P2;SDS_P1;SDS_P2;PMS_P1;PMS_P2;Temp;Humidity;BMP_temperature;BMP_pressure;BME280_temperature;BME280_humidity;BME280_pressure;Samples;Min_cycle;Max_cycle;Signal;HPM_P1;HPM_P2
2024/04/08 00:00:54;;;;;;;;;;;15.90;99.90;;;;;;2091444;28;19939;-79
2024/04/08 00:01:54;;;;;;;;;;;15.90;99.90;;;;;;2087604;28;19916;-79
2024/04/08 00:02:55;;;;;;;;;;;15.90;99.90;;;;;;2093249;28;20605;-78
2024/04/08 00:03:55;;;;;;;;;;;15.90;99.90;;;;;;2094469;28;20376;-78
2024/04/08 00:04:56;;;;;;;;;;;15.90;99.90;;;;;;2091258;28;19927;-78
2024/04/08 00:05:57;;;;;;;;;;;15.80;99.90;;;;;;2092776;28;19916;-78
2024/04/08 00:06:59;;;;;;;;;;;15.80;99.90;;;;;;2094860;28;19977;-78
2024/04/08 00:08:01;;;;;;;;;;;15.80;99.90;;;;;;2086225;28;19920;-78
2024/04/08 00:09:01;;;;;;;;;;;15.70;99.90;;;;;;2090019;28;19917;-78
2024/04/08 00:10:02;;;;;;;;;;;15.70;99.90;;;;;;2086078;28;19924;-78
2024/04/08 00:11:07;;;;;;;;;;;15.70;99.90;;;;;;2092785;28;20458;-79
2024/04/08 00:12:08;;;;;;;;;;;15.70;99.90;;;;;;2093099;28;19916;-79
2024/04/08 00:13:08;;;;;;;;;;;15.70;99.90;;;;;;2086135;28;19913;-78
2024/04/08 00:14:09;;;;;;;;;;;15.60;99.90;;;;;;2097820;28;19928;-79
2024/04/08 00:15:10;;;;;;;;;;;15.70;99.90;;;;;;2093805;28;20231;-79
2024/04/08 00:16:11;;;;;;;;;;;15.70;99.90;;;;;;2086325;28;19913;-77
2024/04/08 00:17:11;;;;;;;;;;;15.60;99.90;;;;;;2096837;28;20003;-80
2024/04/08 00:18:13;;;;;;;;;;;15.60;99.90;;;;;;2100400;28;20429;-79
2024/04/08 00:19:13;;;;;;;;;;;15.50;99.90;;;;;;2095225;28;19917;-80
2024/04/08 00:20:14;;;;;;;;;;;15.50;99.90;;;;;;2093342;28;19913;-79
2024/04/08 00:21:14;;;;;;;;;;;15.50;99.90;;;;;;2096241;28;20392;-79
2024/04/08 00:22:15;;;;;;;;;;;15.50;99.90;;;;;;2085576;28;19919;-79
2024/04/08 00:23:15;;;;;;;;;;;15.50;99.90;;;;;;2092634;28;19911;-79
2024/04/08 00:24:16;;;;;;;;;;;15.50;99.90;;;;;;2086501;28;20246;-80
2024/04/08 00:25:17;;;;;;;;;;;15.50;99.90;;;;;;2093894;28;19912;-79
2024/04/08 00:26:18;;;;;;;;;;;15.50;99.90;;;;;;2096706;28;19923;-78
2024/04/08 00:27:19;;;;;;;;;;;15.40;99.90;;;;;;2091049;28;19919;-78
2024/04/08 00:28:19;;;;;;;;;;;15.50;99.90;;;;;;2082982;28;19913;-80
2024/04/08 00:29:20;;;;;;;;;;;15.50;99.90;;;;;;2084459;28;19986;-78
2024/04/08 00:30:20;;;;;;;;;;;15.40;99.90;;;;;;2087799;28;19978;-80
2024/04/08 00:31:20;;;;;;;;;;;15.40;99.90;;;;;;2084140;28;19917;-78
2024/04/08 00:32:21;;;;;;;;;;;15.50;99.90;;;;;;2091168;28;19966;-81
2024/04/08 00:33:21;;;;;;;;;;;15.40;99.90;;;;;;2093553;28;20037;-79
2024/04/08 00:34:22;;;;;;;;;;;15.40;99.90;;;;;;2092445;28;19931;-79
2024/04/08 00:35:22;;;;;;;;;;;15.40;99.90;;;;;;2090572;28;19959;-80
2024/04/08 00:36:23;;;;;;;;;;;15.40;99.90;;;;;;2092638;28;19980;-79
2024/04/08 00:37:24;;;;;;;;;;;15.40;99.90;;;;;;2088179;28;20291;-79
2024/04/08 00:38:24;;;;;;;;;;;15.40;99.90;;;;;;2097573;28;20027;-80
2024/04/08 00:39:25;;;;;;;;;;;15.30;99.90;;;;;;2091979;28;19957;-79
2024/04/08 00:40:33;;;;;;;;;;;15.30;99.90;;;;;;2091353;28;19912;-79
2024/04/08 00:41:34;;;;;;;;;;;15.30;99.90;;;;;;2091690;28;19913;-80
2024/04/08 00:42:34;;;;;;;;;;;15.30;99.90;;;;;;2080166;28;20336;-79
2024/04/08 00:43:35;;;;;;;;;;;15.30;99.90;;;;;;2092100;28;20047;-79
2024/04/08 00:44:35;;;;;;;;;;;15.30;99.90;;;;;;2091699;28;21547;-78
2024/04/08 00:45:36;;;;;;;;;;;15.30;99.90;;;;;;2087069;28;19921;-79
2024/04/08 00:46:37;;;;;;;;;;;15.30;99.90;;;;;;2093604;28;20159;-79
2024/04/08 00:47:38;;;;;;;;;;;15.30;99.90;;;;;;2091222;28;19917;-79
2024/04/08 00:48:38;;;;;;;;;;;15.30;99.90;;;;;;2087757;28;20004;-79
2024/04/08 00:49:40;;;;;;;;;;;15.30;99.90;;;;;;2092813;28;20119;-79
2024/04/08 00:50:44;;;;;;;;;;;15.30;99.90;;;;;;2095669;28;20028;-79
2024/04/08 00:51:44;;;;;;;;;;;15.30;99.90;;;;;;2097598;28;19916;-78
2024/04/08 00:52:45;;;;;;;;;;;15.30;99.90;;;;;;2089606;28;19917;-78
2024/04/08 00:53:47;;;;;;;;;;;15.40;99.90;;;;;;2097056;28;19920;-78
2024/04/08 00:54:48;;;;;;;;;;;15.40;99.90;;;;;;2088542;28;19949;-78
2024/04/08 00:55:49;;;;;;;;;;;15.40;99.90;;;;;;2094248;28;20177;-78
2024/04/08 00:56:50;;;;;;;;;;;15.40;99.90;;;;;;2087428;28;19917;-78
2024/04/08 00:57:51;;;;;;;;;;;15.40;99.90;;;;;;2091720;28;19966;-79
2024/04/08 00:58:51;;;;;;;;;;;15.40;99.90;;;;;;2094524;28;20002;-78
2024/04/08 00:59:52;;;;;;;;;;;15.50;99.90;;;;;;2096309;28;19915;-77
2024/04/08 01:00:53;;;;;;;;;;;15.40;99.90;;;;;;2084770;28;19917;-80
2024/04/08 01:01:53;;;;;;;;;;;15.50;99.90;;;;;;2094944;28;19963;-78
2024/04/08 01:02:54;;;;;;;;;;;15.50;99.90;;;;;;2097005;28;20305;-79
2024/04/08 01:03:56;;;;;;;;;;;15.50;99.90;;;;;;2093447;28;20011;-77
2024/04/08 01:04:57;;;;;;;;;;;15.50;99.90;;;;;;2092266;28;19917;-77
2024/04/08 01:05:58;;;;;;;;;;;15.60;99.90;;;;;;2092825;28;19916;-80
2024/04/08 01:06:59;;;;;;;;;;;15.60;99.90;;;;;;2087571;28;19927;-78
2024/04/08 01:08:00;;;;;;;;;;;15.70;99.90;;;;;;2090864;28;19913;-79
2024/04/08 01:09:01;;;;;;;;;;;15.70;99.90;;;;;;2089417;28;19912;-80
2024/04/08 01:10:01;;;;;;;;;;;15.80;99.90;;;;;;2086928;28;20297;-80
2024/04/08 01:11:02;;;;;;;;;;;15.80;99.90;;;;;;2094311;28;20374;-79
2024/04/08 01:12:03;;;;;;;;;;;15.70;99.90;;;;;;2091287;28;19951;-79
2024/04/08 01:13:04;;;;;;;;;;;15.70;99.90;;;;;;2094617;28;20314;-79
2024/04/08 01:14:04;;;;;;;;;;;15.70;99.90;;;;;;2090182;28;19991;-79
2024/04/08 01:15:05;;;;;;;;;;;15.60;99.90;;;;;;2089030;28;19955;-79
2024/04/08 01:16:06;;;;;;;;;;;15.60;99.90;;;;;;2092442;28;19944;-79
2024/04/08 01:17:07;;;;;;;;;;;15.60;99.90;;;;;;2081068;28;19917;-80
2024/04/08 01:18:07;;;;;;;;;;;15.60;99.90;;;;;;2091301;28;19912;-79
2024/04/08 01:19:08;;;;;;;;;;;15.60;99.90;;;;;;2090321;28;20382;-77
2024/04/08 01:20:08;;;;;;;;;;;15.60;99.90;;;;;;2094498;28;19932;-78
2024/04/08 01:21:09;;;;;;;;;;;15.60;99.90;;;;;;2093769;28;19930;-78
2024/04/08 01:22:10;;;;;;;;;;;15.60;99.90;;;;;;2091895;28;20359;-78
2024/04/08 01:23:14;;;;;;;;;;;15.60;99.90;;;;;;2093873;28;19908;-79
2024/04/08 01:24:15;;;;;;;;;;;15.60;99.90;;;;;;2092664;28;20326;-78
2024/04/08 01:25:15;;;;;;;;;;;15.50;99.90;;;;;;2087188;28;20067;-78
2024/04/08 01:26:17;;;;;;;;;;;15.50;99.90;;;;;;2100790;28;19928;-79
2024/04/08 01:27:18;;;;;;;;;;;15.50;99.90;;;;;;2101429;28;20433;-79
2024/04/08 01:28:19;;;;;;;;;;;15.50;99.90;;;;;;2086987;28;19916;-79
2024/04/08 01:29:19;;;;;;;;;;;15.50;99.90;;;;;;2095071;28;20324;-79
2024/04/08 01:30:23;;;;;;;;;;;15.50;99.90;;;;;;2091600;28;19933;-78
2024/04/08 01:31:24;;;;;;;;;;;15.50;99.90;;;;;;2084204;28;20047;-80
2024/04/08 01:32:24;;;;;;;;;;;15.50;99.90;;;;;;2092271;28;19912;-80
2024/04/08 01:33:28;;;;;;;;;;;15.50;99.90;;;;;;2092740;28;19912;-80
2024/04/08 01:34:31;;;;;;;;;;;15.50;99.90;;;;;;2085381;28;19921;-80
2024/04/08 01:35:32;;;;;;;;;;;15.40;99.90;;;;;;2092532;28;20073;-80
2024/04/08 01:36:32;;;;;;;;;;;15.40;99.90;;;;;;2092653;28;19921;-80
2024/04/08 01:37:33;;;;;;;;;;;15.40;99.90;;;;;;2096922;28;19916;-80
2024/04/08 01:38:37;;;;;;;;;;;15.40;99.90;;;;;;2095329;28;19973;-80
2024/04/08 01:39:37;;;;;;;;;;;15.40;99.90;;;;;;2085376;28;19913;-80
2024/04/08 01:40:38;;;;;;;;;;;15.30;99.90;;;;;;2091259;28;19924;-79
2024/04/08 01:41:38;;;;;;;;;;;15.40;99.90;;;;;;2092240;28;19924;-79
2024/04/08 01:42:39;;;;;;;;;;;15.40;99.90;;;;;;2086337;28;19917;-79
2024/04/08 01:43:39;;;;;;;;;;;15.40;99.90;;;;;;2090067;28;19913;-79
2024/04/08 01:44:40;;;;;;;;;;;15.30;99.90;;;;;;2092763;28;20373;-80
2024/04/08 01:45:40;;;;;;;;;;;15.30;99.90;;;;;;2087116;28;19948;-78
2024/04/08 01:46:41;;;;;;;;;;;15.30;99.90;;;;;;2090123;28;20472;-79
2024/04/08 01:47:41;;;;;;;;;;;15.30;99.90;;;;;;2092583;28;19916;-79
2024/04/08 01:48:42;;;;;;;;;;;15.30;99.90;;;;;;2090251;28;19916;-79
2024/04/08 01:49:42;;;;;;;;;;;15.30;99.90;;;;;;2089302;28;20522;-79
2024/04/08 01:50:43;;;;;;;;;;;15.30;99.90;;;;;;2100387;28;19915;-80
2024/04/08 01:51:43;;;;;;;;;;;15.30;99.90;;;;;;2086933;28;19923;-80
2024/04/08 01:52:58;;;;;;;;;;;15.30;99.90;;;;;;2089144;28;19956;-80
2024/04/08 01:53:59;;;;;;;;;;;15.30;99.90;;;;;;2091309;28;20331;-79
2024/04/08 01:54:59;;;;;;;;;;;15.30;99.90;;;;;;2092715;28;19920;-80
2024/04/08 01:56:00;;;;;;;;;;;15.30;99.90;;;;;;2094429;28;19921;-79
2024/04/08 01:57:00;;;;;;;;;;;15.30;99.90;;;;;;2090321;28;20082;-79
2024/04/08 01:58:01;;;;;;;;;;;15.30;99.90;;;;;;2092944;28;19916;-79
2024/04/08 01:59:01;;;;;;;;;;;15.30;99.90;;;;;;2095784;28;20393;-80
2024/04/08 02:00:02;;;;;;;;;;;15.30;99.90;;;;;;2091313;28;19935;-80
2024/04/08 02:01:12;;;;;;;;;;;15.30;99.90;;;;;;2085950;28;20314;-78
2024/04/08 02:02:13;;;;;;;;;;;15.20;99.90;;;;;;2090769;28;20695;-79
2024/04/08 02:03:13;;;;;;;;;;;15.20;99.90;;;;;;2092348;28;19916;-78
2024/04/08 02:04:14;;;;;;;;;;;15.20;99.90;;;;;;2090327;28;19920;-79
2024/04/08 02:05:14;;;;;;;;;;;15.20;99.90;;;;;;2090726;28;19955;-79
2024/04/08 02:06:15;;;;;;;;;;;15.10;99.90;;;;;;2091733;28;19912;-79
2024/04/08 02:07:15;;;;;;;;;;;15.10;99.90;;;;;;2085698;28;19913;-80
2024/04/08 02:08:16;;;;;;;;;;;15.10;99.90;;;;;;2089925;28;19913;-80
2024/04/08 02:09:16;;;;;;;;;;;15.10;99.90;;;;;;2093385;28;19964;-79
2024/04/08 02:10:18;;;;;;;;;;;15.10;99.90;;;;;;2089392;28;19978;-80
2024/04/08 02:11:18;;;;;;;;;;;15.00;99.90;;;;;;2089137;28;19928;-79
2024/04/08 02:12:19;;;;;;;;;;;15.00;99.90;;;;;;2091453;28;20345;-79
2024/04/08 02:13:19;;;;;;;;;;;15.00;99.90;;;;;;2093238;28;20030;-80
2024/04/08 02:14:20;;;;;;;;;;;15.00;99.90;;;;;;2092385;28;19962;-80
2024/04/08 02:15:20;;;;;;;;;;;15.00;99.90;;;;;;2086362;28;20412;-79
2024/04/08 02:16:21;;;;;;;;;;;15.00;99.90;;;;;;2089145;28;19916;-80
2024/04/08 02:17:21;;;;;;;;;;;15.00;99.90;;;;;;2091285;28;19916;-78
2024/04/08 02:18:22;;;;;;;;;;;14.90;99.90;;;;;;2086931;28;19921;-78
2024/04/08 02:19:25;;;;;;;;;;;14.90;99.90;;;;;;2093674;28;19928;-78
2024/04/08 02:20:26;;;;;;;;;;;14.90;99.90;;;;;;2092713;28;19923;-78
2024/04/08 02:21:27;;;;;;;;;;;15.00;99.90;;;;;;2088396;28;19917;-78
2024/04/08 02:22:27;;;;;;;;;;;15.00;99.90;;;;;;2089209;28;19924;-79
2024/04/08 02:23:28;;;;;;;;;;;15.00;99.90;;;;;;2094036;28;19919;-80
2024/04/08 02:24:28;;;;;;;;;;;15.00;99.90;;;;;;2089156;28;19923;-80
2024/04/08 02:25:29;;;;;;;;;;;15.00;99.90;;;;;;2087868;28;19920;-80
2024/04/08 02:26:29;;;;;;;;;;;15.00;99.90;;;;;;2092091;28;20269;-79
2024/04/08 02:27:30;;;;;;;;;;;14.90;99.90;;;;;;2089427;28;20378;-79
2024/04/08 02:28:45;;;;;;;;;;;14.90;99.90;;;;;;2089028;28;20196;-79
2024/04/08 02:29:46;;;;;;;;;;;14.90;99.90;;;;;;2087213;28;19917;-80
2024/04/08 02:30:46;;;;;;;;;;;14.90;99.90;;;;;;2084277;28;19917;-79
2024/04/08 02:31:47;;;;;;;;;;;14.80;99.90;;;;;;2083595;28;20371;-79
2024/04/08 02:34:17;;;;;;;;;;;14.70;99.90;;;;;;2284960;25;20313;-79
2024/04/08 02:35:18;;;;;;;;;;;14.70;99.90;;;;;;2276262;25;19927;-80
2024/04/08 02:36:18;;;;;;;;;;;14.70;99.90;;;;;;2252715;26;20396;-78
2024/04/08 02:37:19;;;;;;;;;;;14.70;99.90;;;;;;2253075;26;19998;-78
2024/04/08 02:38:21;;;;;;;;;;;14.70;99.90;;;;;;2268018;25;19928;-80
2024/04/08 02:39:22;;;;;;;;;;;14.70;99.90;;;;;;2268569;25;19935;-79
2024/04/08 02:40:22;;;;;;;;;;;14.70;99.90;;;;;;2286145;25;19959;-82
2024/04/08 02:41:22;;;;;;;;;;;14.70;99.90;;;;;;2280001;25;19961;-83
2024/04/08 02:42:23;;;;;;;;;;;14.70;99.90;;;;;;2280583;25;19935;-81
2024/04/08 02:43:24;;;;;;;;;;;14.70;99.90;;;;;;2291455;25;19927;-81
2024/04/08 02:44:24;;;;;;;;;;;14.70;99.90;;;;;;2282757;25;19934;-71
2024/04/08 02:45:25;;;;;;;;;;;14.70;99.90;;;;;;2283806;25;19939;-73
2024/04/08 02:46:25;;;;;;;;;;;14.70;99.90;;;;;;2266882;25;20240;-80
2024/04/08 02:47:26;;;;;;;;;;;14.70;99.90;;;;;;2262383;25;20347;-72
2024/04/08 02:48:26;;;;;;;;;;;14.70;99.90;;;;;;2268622;26;19928;-80
2024/04/08 02:49:27;;;;;;;;;;;14.60;99.90;;;;;;2269078;26;19962;-81
2024/04/08 02:50:27;;;;;;;;;;;14.60;99.90;;;;;;2261756;25;20456;-80
2024/04/08 02:51:28;;;;;;;;;;;14.50;99.90;;;;;;2262558;26;19948;-80
2024/04/08 02:52:29;;;;;;;;;;;14.50;99.90;;;;;;2262773;26;20259;-81
2024/04/08 02:53:30;;;;;;;;;;;14.50;99.90;;;;;;2262969;26;19928;-81
2024/04/08 02:54:30;;;;;;;;;;;14.50;99.90;;;;;;2272528;25;19943;-82
2024/04/08 02:55:31;;;;;;;;;;;14.50;99.90;;;;;;2282953;25;19963;-82
2024/04/08 02:56:32;;;;;;;;;;;14.50;99.90;;;;;;2290595;25;19939;-82
2024/04/08 02:57:33;;;;;;;;;;;14.50;99.90;;;;;;2293166;25;19934;-82
2024/04/08 02:58:33;;;;;;;;;;;14.50;99.90;;;;;;2286967;25;19935;-80
2024/04/08 02:59:34;;;;;;;;;;;14.50;99.90;;;;;;2260461;25;19932;-80
2024/04/08 03:00:38;;;;;;;;;;;14.50;99.90;;;;;;2255305;26;20060;-80
2024/04/08 03:01:38;;;;;;;;;;;14.50;99.90;;;;;;2285951;25;19927;-81
2024/04/08 03:02:39;;;;;;;;;;;14.50;99.90;;;;;;2269603;25;19935;-81
2024/04/08 03:03:40;;;;;;;;;;;14.50;99.90;;;;;;2269274;26;20004;-82
2024/04/08 03:04:40;;;;;;;;;;;14.50;99.90;;;;;;2254339;26;19928;-81
2024/04/08 03:05:41;;;;;;;;;;;14.50;99.90;;;;;;2254061;26;19960;-82
2024/04/08 03:06:41;;;;;;;;;;;14.50;99.90;;;;;;2280638;25;19927;-82
2024/04/08 03:07:42;;;;;;;;;;;14.40;99.90;;;;;;2281721;25;19935;-80
2024/04/08 03:08:42;;;;;;;;;;;14.40;99.90;;;;;;2285274;25;20334;-82
2024/04/08 03:09:47;;;;;;;;;;;14.40;99.90;;;;;;2285503;25;19928;-82
2024/04/08 03:10:48;;;;;;;;;;;14.50;99.90;;;;;;2269002;25;19928;-82
2024/04/08 03:11:48;;;;;;;;;;;14.50;99.90;;;;;;2253768;26;19934;-82
2024/04/08 03:12:49;;;;;;;;;;;14.50;99.90;;;;;;2266989;26;19927;-83
2024/04/08 03:13:50;;;;;;;;;;;14.40;99.90;;;;;;2253911;26;19935;-83
2024/04/08 03:14:51;;;;;;;;;;;14.40;99.90;;;;;;2270039;25;20494;-82
2024/04/08 03:15:54;;;;;;;;;;;14.40;99.90;;;;;;2267314;25;19935;-83
2024/04/08 03:16:55;;;;;;;;;;;14.40;99.90;;;;;;2269459;26;19935;-83
2024/04/08 03:17:55;;;;;;;;;;;14.30;99.90;;;;;;2277314;25;19935;-83
2024/04/08 03:18:56;;;;;;;;;;;14.30;99.90;;;;;;2270681;25;19928;-82
2024/04/08 03:19:58;;;;;;;;;;;14.20;99.90;;;;;;2271230;25;20367;-82
2024/04/08 03:21:02;;;;;;;;;;;14.30;99.90;;;;;;2286440;25;19935;-84
2024/04/08 03:22:03;;;;;;;;;;;14.20;99.90;;;;;;2264893;25;19981;-83
2024/04/08 03:23:03;;;;;;;;;;;14.20;99.90;;;;;;2271886;26;19973;-84
2024/04/08 03:24:04;;;;;;;;;;;14.30;99.90;;;;;;2272030;26;19943;-83
2024/04/08 03:25:04;;;;;;;;;;;14.20;99.90;;;;;;2293095;25;19927;-83
2024/04/08 03:26:08;;;;;;;;;;;14.20;99.90;;;;;;2293340;25;20112;-84
2024/04/08 03:27:09;;;;;;;;;;;14.20;99.90;;;;;;2275710;25;19926;-83
2024/04/08 03:28:09;;;;;;;;;;;14.20;99.90;;;;;;2257305;26;19935;-84
2024/04/08 03:29:10;;;;;;;;;;;14.20;99.90;;;;;;2264979;26;19959;-84
2024/04/08 03:30:10;;;;;;;;;;;14.20;99.90;;;;;;2286602;25;20000;-83
2024/04/08 03:31:13;;;;;;;;;;;14.20;99.90;;;;;;2267064;26;19928;-84
2024/04/08 03:32:13;;;;;;;;;;;14.20;99.90;;;;;;2253742;26;20433;-83
2024/04/08 03:33:14;;;;;;;;;;;14.20;99.90;;;;;;2254066;26;19976;-82
2024/04/08 03:34:14;;;;;;;;;;;14.20;99.90;;;;;;2269826;25;19935;-83
2024/04/08 03:35:14;;;;;;;;;;;14.20;99.90;;;;;;2269394;26;20370;-82
2024/04/08 03:36:16;;;;;;;;;;;14.20;99.90;;;;;;2268801;26;19928;-83
2024/04/08 03:37:17;;;;;;;;;;;14.20;99.90;;;;;;2247513;26;19944;-82
2024/04/08 03:38:18;;;;;;;;;;;14.30;99.90;;;;;;2241685;26;19929;-83
2024/04/08 03:39:18;;;;;;;;;;;14.30;99.90;;;;;;2255637;26;19959;-83
2024/04/08 03:40:20;;;;;;;;;;;14.30;99.90;;;;;;2270777;25;19938;-83
2024/04/08 03:41:21;;;;;;;;;;;14.30;99.90;;;;;;2273034;26;20442;-83
2024/04/08 03:42:21;;;;;;;;;;;14.30;99.90;;;;;;2256543;26;20403;-84
2024/04/08 03:43:22;;;;;;;;;;;14.30;99.90;;;;;;2254918;26;20279;-83
2024/04/08 03:44:22;;;;;;;;;;;14.20;99.90;;;;;;2242514;26;19929;-84
2024/04/08 03:45:23;;;;;;;;;;;14.20;99.90;;;;;;2260472;26;19931;-84
2024/04/08 03:46:23;;;;;;;;;;;14.20;99.90;;;;;;2277225;25;19934;-84
2024/04/08 03:47:24;;;;;;;;;;;14.10;99.90;;;;;;2278961;26;19955;-82
2024/04/08 03:48:25;;;;;;;;;;;14.10;99.90;;;;;;2278072;26;19931;-83
2024/04/08 03:49:26;;;;;;;;;;;14.10;99.90;;;;;;2261793;26;19931;-83
2024/04/08 03:50:27;;;;;;;;;;;14.10;99.90;;;;;;2248533;26;19928;-84
2024/04/08 03:51:27;;;;;;;;;;;14.10;99.90;;;;;;2263300;26;19961;-83
2024/04/08 03:52:28;;;;;;;;;;;14.20;99.90;;;;;;2248630;26;19928;-83
2024/04/08 03:53:28;;;;;;;;;;;14.20;99.90;;;;;;2252280;26;19952;-83
2024/04/08 03:54:29;;;;;;;;;;;14.30;99.90;;;;;;2271235;26;20427;-84
2024/04/08 03:55:30;;;;;;;;;;;14.30;99.90;;;;;;2280416;26;19939;-85
2024/04/08 03:56:30;;;;;;;;;;;14.30;99.90;;;;;;2264636;26;19936;-84
2024/04/08 03:57:31;;;;;;;;;;;14.30;99.90;;;;;;2265552;26;19945;-84
2024/04/08 03:58:31;;;;;;;;;;;14.30;99.90;;;;;;2280600;25;20344;-84
2024/04/08 03:59:32;;;;;;;;;;;14.30;99.90;;;;;;2273313;25;19939;-83
2024/04/08 04:00:32;;;;;;;;;;;14.30;99.90;;;;;;2281895;26;19928;-84
2024/04/08 04:01:33;;;;;;;;;;;14.40;99.90;;;;;;2281190;26;19967;-83
2024/04/08 04:02:33;;;;;;;;;;;14.30;99.90;;;;;;2262205;26;20335;-82
2024/04/08 04:03:34;;;;;;;;;;;14.30;99.90;;;;;;2262529;26;19964;-82
2024/04/08 04:04:35;;;;;;;;;;;14.30;99.90;;;;;;2275067;26;19927;-82
2024/04/08 04:05:35;;;;;;;;;;;14.20;99.90;;;;;;2261606;26;20389;-83
2024/04/08 04:06:36;;;;;;;;;;;14.20;99.90;;;;;;2262364;26;19936;-81
2024/04/08 04:07:37;;;;;;;;;;;14.20;99.90;;;;;;2263082;26;19939;-82
2024/04/08 04:08:38;;;;;;;;;;;14.20;99.90;;;;;;2262896;26;19936;-84
2024/04/08 04:09:38;;;;;;;;;;;14.10;99.90;;;;;;2278398;25;19928;-83
2024/04/08 04:10:39;;;;;;;;;;;14.20;99.90;;;;;;2277640;26;19928;-80
2024/04/08 04:11:39;;;;;;;;;;;14.10;99.90;;;;;;2253836;26;20138;-81
2024/04/08 04:12:41;;;;;;;;;;;14.20;99.90;;;;;;2238502;26;19929;-81
2024/04/08 04:13:41;;;;;;;;;;;14.20;99.90;;;;;;2260108;26;20378;-80
2024/04/08 04:14:42;;;;;;;;;;;14.10;99.90;;;;;;2274644;25;20009;-81
2024/04/08 04:15:42;;;;;;;;;;;14.10;99.90;;;;;;2272535;26;19939;-83
2024/04/08 04:16:43;;;;;;;;;;;14.10;99.90;;;;;;2279165;26;19947;-83
2024/04/08 04:17:43;;;;;;;;;;;14.10;99.90;;;;;;2278365;26;19934;-79
2024/04/08 04:18:44;;;;;;;;;;;14.10;99.90;;;;;;2261760;26;19940;-81
2024/04/08 04:19:45;;;;;;;;;;;14.10;99.90;;;;;;2261724;26;20304;-81
2024/04/08 04:20:48;;;;;;;;;;;14.10;99.90;;;;;;2261960;26;19963;-81
2024/04/08 04:21:49;;;;;;;;;;;14.10;99.90;;;;;;2277696;26;20381;-81
2024/04/08 04:22:49;;;;;;;;;;;14.00;99.90;;;;;;2280560;26;19937;-81
2024/04/08 04:23:50;;;;;;;;;;;14.00;99.90;;;;;;2261180;26;20295;-81
2024/04/08 04:24:51;;;;;;;;;;;14.10;99.90;;;;;;2253571;26;19936;-81
2024/04/08 04:25:53;;;;;;;;;;;14.10;99.90;;;;;;2254145;26;20303;-81
2024/04/08 04:26:53;;;;;;;;;;;14.00;99.90;;;;;;2277788;26;19927;-81
2024/04/08 04:27:54;;;;;;;;;;;14.00;99.90;;;;;;2278207;25;20045;-83
2024/04/08 04:28:54;;;;;;;;;;;14.00;99.90;;;;;;2275149;26;19927;-82
2024/04/08 04:29:55;;;;;;;;;;;14.00;99.90;;;;;;2284101;26;19931;-82
2024/04/08 04:30:56;;;;;;;;;;;13.90;99.90;;;;;;2265262;26;19950;-82
2024/04/08 04:31:57;;;;;;;;;;;13.90;99.90;;;;;;2267339;26;19940;-83
2024/04/08 04:32:58;;;;;;;;;;;13.90;99.90;;;;;;2282021;26;19939;-82
2024/04/08 04:33:59;;;;;;;;;;;13.90;99.90;;;;;;2281664;26;19996;-83
2024/04/08 04:34:59;;;;;;;;;;;14.00;99.90;;;;;;2281351;25;20382;-82
2024/04/08 04:36:00;;;;;;;;;;;14.00;99.90;;;;;;2280368;25;19927;-84
2024/04/08 04:37:00;;;;;;;;;;;14.00;99.90;;;;;;2280510;25;20377;-83
2024/04/08 04:38:01;;;;;;;;;;;14.00;99.90;;;;;;2264141;26;19928;-82
2024/04/08 04:39:03;;;;;;;;;;;14.00;99.90;;;;;;2233420;26;19929;-83
2024/04/08 04:40:04;;;;;;;;;;;14.00;99.90;;;;;;2249253;26;20042;-81
2024/04/08 04:41:05;;;;;;;;;;;14.00;99.90;;;;;;2281369;26;19928;-82
2024/04/08 04:42:06;;;;;;;;;;;14.00;99.90;;;;;;2279180;25;19927;-82
2024/04/08 04:43:07;;;;;;;;;;;14.00;99.90;;;;;;2259392;26;19928;-82
2024/04/08 04:44:07;;;;;;;;;;;14.00;99.90;;;;;;2265088;26;19937;-83
2024/04/08 04:45:08;;;;;;;;;;;14.00;99.90;;;;;;2264421;26;19958;-80
2024/04/08 04:46:10;;;;;;;;;;;14.10;99.90;;;;;;2276870;25;19939;-80
2024/04/08 04:47:11;;;;;;;;;;;14.10;99.90;;;;;;2276991;26;19935;-80
2024/04/08 04:48:11;;;;;;;;;;;14.10;99.90;;;;;;2277243;25;19927;-80
2024/04/08 04:49:11;;;;;;;;;;;14.20;99.90;;;;;;2277197;26;19928;-80
2024/04/08 04:50:12;;;;;;;;;;;14.20;99.90;;;;;;2260387;26;20718;-80
2024/04/08 04:51:12;;;;;;;;;;;14.20;99.90;;;;;;2260870;26;20170;-80
2024/04/08 04:52:13;;;;;;;;;;;14.30;99.90;;;;;;2260894;26;19996;-79
2024/04/08 04:53:14;;;;;;;;;;;14.30;99.90;;;;;;2246263;26;19928;-81
2024/04/08 04:54:14;;;;;;;;;;;14.40;99.90;;;;;;2245796;26;19935;-79
2024/04/08 04:55:14;;;;;;;;;;;14.40;99.90;;;;;;2259423;26;20886;-79
2024/04/08 04:56:15;;;;;;;;;;;14.50;99.90;;;;;;2260739;26;19936;-80
2024/04/08 04:57:15;;;;;;;;;;;14.50;99.90;;;;;;2276790;26;19964;-79
2024/04/08 04:58:16;;;;;;;;;;;14.50;99.90;;;;;;2259880;26;20001;-80
2024/04/08 04:59:16;;;;;;;;;;;14.60;99.90;;;;;;2260741;26;20140;-80
2024/04/08 05:00:17;;;;;;;;;;;14.50;99.90;;;;;;2276737;25;20359;-77
2024/04/08 05:01:17;;;;;;;;;;;14.60;99.90;;;;;;2256726;26;20362;-78
2024/04/08 05:02:18;;;;;;;;;;;14.50;99.90;;;;;;2260390;26;20418;-79
2024/04/08 05:03:18;;;;;;;;;;;14.50;99.90;;;;;;2277095;25;19939;-78
2024/04/08 05:04:19;;;;;;;;;;;14.60;99.90;;;;;;2276558;25;19928;-77
2024/04/08 05:05:19;;;;;;;;;;;14.60;99.90;;;;;;2276432;26;20384;-78
2024/04/08 05:06:20;;;;;;;;;;;14.60;99.90;;;;;;2276947;25;20321;-79
2024/04/08 05:07:20;;;;;;;;;;;14.60;99.90;;;;;;2276566;26;19934;-78
2024/04/08 05:08:21;;;;;;;;;;;14.60;99.90;;;;;;2276702;25;19995;-79
2024/04/08 05:09:21;;;;;;;;;;;14.50;99.90;;;;;;2276997;26;19934;-78
2024/04/08 05:10:22;;;;;;;;;;;14.60;99.90;;;;;;2260421;26;20019;-77
2024/04/08 05:11:23;;;;;;;;;;;14.50;99.90;;;;;;2260065;26;20323;-79
2024/04/08 05:12:23;;;;;;;;;;;14.50;99.90;;;;;;2276775;25;19927;-79
2024/04/08 05:13:24;;;;;;;;;;;14.60;99.90;;;;;;2259923;26;19935;-78
2024/04/08 05:14:24;;;;;;;;;;;14.60;99.90;;;;;;2261159;26;19935;-78
2024/04/08 05:15:26;;;;;;;;;;;14.60;99.90;;;;;;2245772;26;20599;-78
2024/04/08 05:16:27;;;;;;;;;;;14.60;99.90;;;;;;2252871;26;20453;-77
2024/04/08 05:17:27;;;;;;;;;;;14.70;99.90;;;;;;2278192;25;19928;-77
2024/04/08 05:18:28;;;;;;;;;;;14.70;99.90;;;;;;2276438;26;19939;-77
2024/04/08 05:19:28;;;;;;;;;;;14.70;99.90;;;;;;2276737;25;20599;-77
2024/04/08 05:20:29;;;;;;;;;;;14.70;99.90;;;;;;2276230;26;19927;-77
2024/04/08 05:21:30;;;;;;;;;;;14.70;99.90;;;;;;2276800;26;19934;-77
2024/04/08 05:22:31;;;;;;;;;;;14.70;99.90;;;;;;2260407;26;19934;-77
2024/04/08 05:23:31;;;;;;;;;;;14.70;99.90;;;;;;2260351;26;19996;-78
2024/04/08 05:24:32;;;;;;;;;;;14.70;99.90;;;;;;2252518;26;19932;-78
2024/04/08 05:25:33;;;;;;;;;;;14.70;99.90;;;;;;2245734;26;20307;-79
2024/04/08 05:26:33;;;;;;;;;;;14.80;99.90;;;;;;2276670;26;19940;-77
2024/04/08 05:27:33;;;;;;;;;;;14.90;99.90;;;;;;2276286;25;19928;-78
2024/04/08 05:28:34;;;;;;;;;;;14.90;99.90;;;;;;2260153;26;19928;-78
2024/04/08 05:29:35;;;;;;;;;;;14.90;99.90;;;;;;2260770;26;19935;-79
2024/04/08 05:30:36;;;;;;;;;;;14.90;99.90;;;;;;2276034;26;20391;-79
2024/04/08 05:31:36;;;;;;;;;;;14.90;99.90;;;;;;2270598;25;19933;-80
2024/04/08 05:32:37;;;;;;;;;;;14.90;99.90;;;;;;2276344;25;20277;-78
2024/04/08 05:33:37;;;;;;;;;;;15.00;99.90;;;;;;2276314;26;19939;-79
2024/04/08 05:34:38;;;;;;;;;;;15.00;99.90;;;;;;2275942;26;19951;-78
2024/04/08 05:35:40;;;;;;;;;;;15.10;99.90;;;;;;2276026;25;19931;-77
2024/04/08 05:36:40;;;;;;;;;;;15.10;99.90;;;;;;2260171;26;20264;-77
2024/04/08 05:37:42;;;;;;;;;;;15.10;99.90;;;;;;2260222;26;19956;-79
2024/04/08 05:38:42;;;;;;;;;;;15.10;99.90;;;;;;2276384;26;19928;-80
2024/04/08 05:39:43;;;;;;;;;;;15.00;99.90;;;;;;2276056;25;20329;-77
2024/04/08 05:40:43;;;;;;;;;;;14.90;99.90;;;;;;2276621;25;19927;-77
2024/04/08 05:41:44;;;;;;;;;;;14.90;99.90;;;;;;2260241;26;19962;-78
2024/04/08 05:42:45;;;;;;;;;;;14.90;99.90;;;;;;2260112;26;19939;-78
2024/04/08 05:43:46;;;;;;;;;;;14.90;99.90;;;;;;2274030;26;19927;-79
2024/04/08 05:44:46;;;;;;;;;;;14.90;99.90;;;;;;2259770;26;19928;-80
2024/04/08 05:45:47;;;;;;;;;;;15.00;99.90;;;;;;2245301;26;19928;-77
2024/04/08 05:46:48;;;;;;;;;;;15.10;99.90;;;;;;2260312;26;20440;-78
2024/04/08 05:47:54;;;;;;;;;;;15.10;99.90;;;;;;2276157;25;19937;-78
2024/04/08 05:48:54;;;;;;;;;;;15.20;99.90;;;;;;2260195;26;19936;-79
2024/04/08 05:49:55;;;;;;;;;;;15.20;99.90;;;;;;2241168;26;23839;-79
2024/04/08 05:50:55;;;;;;;;;;;15.30;99.90;;;;;;2235151;26;19947;-79
2024/04/08 05:51:55;;;;;;;;;;;15.30;99.90;;;;;;2236055;26;19939;-79
2024/04/08 05:52:56;;;;;;;;;;;15.40;99.90;;;;;;2257078;26;20232;-78
2024/04/08 05:53:58;;;;;;;;;;;15.50;99.90;;;;;;2275124;25;19936;-81
2024/04/08 05:54:59;;;;;;;;;;;15.50;99.90;;;;;;2275139;26;19938;-77
2024/04/08 05:55:59;;;;;;;;;;;15.60;99.90;;;;;;2276215;25;19928;-79